sensor_id;sensor_type;location;lat;lon;timestamp;P1;durP1;ratioP1;P2;durP2;ratioP2
7316;SDS011;3699;51.462;6.696;2024-03-02T00:00:44;2.17;;;1.97;;
7316;SDS011;3699;51.462;6.696;2024-03-02T00:03:16;3.43;;;2.60;;
7316;SDS011;3699;51.462;6.696;2024-03-02T00:05:43;2.13;;;1.93;;
7316;SDS011;3699;51.462;6.696;2024-03-02T00:08:11;3.40;;;2.63;;
7316;SDS011;3699;51.462;6.696;2024-03-02T00:10:41;4.20;;;2.13;;
7316;SDS011;3699;51.462;6.696;2024-03-02T00:13:08;2.37;;;2.00;;
7316;SDS011;3699;51.462;6.696;2024-03-02T00:15:42;2.23;;;2.03;;
7316;SDS011;3699;51.462;6.696;2024-03-02T00:18:12;2.63;;;2.20;;
7316;SDS011;3699;51.462;6.696;2024-03-02T00:20:43;2.90;;;2.30;;
7316;SDS011;3699;51.462;6.696;2024-03-02T00:23:11;2.77;;;2.30;;
7316;SDS011;3699;51.462;6.696;2024-03-02T00:25:41;1.80;;;1.70;;
7316;SDS011;3699;51.462;6.696;2024-03-02T00:28:17;2.10;;;1.90;;
7316;SDS011;3699;51.462;6.696;2024-03-02T00:30:55;2.07;;;1.80;;
7316;SDS011;3699;51.462;6.696;2024-03-02T00:33:23;3.47;;;2.07;;
7316;SDS011;3699;51.462;6.696;2024-03-02T00:35:55;2.57;;;2.37;;
7316;SDS011;3699;51.462;6.696;2024-03-02T00:38:22;3.57;;;2.20;;
7316;SDS011;3699;51.462;6.696;2024-03-02T00:40:49;3.37;;;2.57;;
7316;SDS011;3699;51.462;6.696;2024-03-02T00:43:25;3.03;;;2.20;;
7316;SDS011;3699;51.462;6.696;2024-03-02T00:46:06;4.13;;;2.63;;
7316;SDS011;3699;51.462;6.696;2024-03-02T00:48:33;4.70;;;2.50;;
7316;SDS011;3699;51.462;6.696;2024-03-02T00:51:02;3.23;;;2.30;;
7316;SDS011;3699;51.462;6.696;2024-03-02T00:53:30;5.37;;;2.50;;
7316;SDS011;3699;51.462;6.696;2024-03-02T00:55:58;2.63;;;2.43;;
7316;SDS011;3699;51.462;6.696;2024-03-02T00:58:25;4.87;;;2.60;;
7316;SDS011;3699;51.462;6.696;2024-03-02T01:00:51;3.60;;;2.37;;
7316;SDS011;3699;51.462;6.696;2024-03-02T01:03:18;3.20;;;2.30;;
7316;SDS011;3699;51.462;6.696;2024-03-02T01:05:45;5.60;;;2.67;;
7316;SDS011;3699;51.462;6.696;2024-03-02T01:08:13;6.13;;;3.30;;
7316;SDS011;3699;51.462;6.696;2024-03-02T01:10:40;4.17;;;2.50;;
7316;SDS011;3699;51.462;6.696;2024-03-02T01:13:08;8.33;;;2.70;;
7316;SDS011;3699;51.462;6.696;2024-03-02T01:15:34;4.67;;;2.90;;
7316;SDS011;3699;51.462;6.696;2024-03-02T01:18:01;6.43;;;3.13;;
7316;SDS011;3699;51.462;6.696;2024-03-02T01:20:28;2.77;;;1.93;;
7316;SDS011;3699;51.462;6.696;2024-03-02T01:22:55;4.00;;;2.53;;
7316;SDS011;3699;51.462;6.696;2024-03-02T01:25:23;5.00;;;2.40;;
7316;SDS011;3699;51.462;6.696;2024-03-02T01:27:50;4.93;;;2.70;;
7316;SDS011;3699;51.462;6.696;2024-03-02T01:30:16;4.50;;;2.60;;
7316;SDS011;3699;51.462;6.696;2024-03-02T01:32:43;4.27;;;2.50;;
7316;SDS011;3699;51.462;6.696;2024-03-02T01:35:10;4.60;;;2.80;;
7316;SDS011;3699;51.462;6.696;2024-03-02T01:37:37;7.47;;;2.93;;
7316;SDS011;3699;51.462;6.696;2024-03-02T01:40:04;4.37;;;3.10;;
7316;SDS011;3699;51.462;6.696;2024-03-02T01:42:36;5.17;;;2.90;;
7316;SDS011;3699;51.462;6.696;2024-03-02T01:45:03;5.63;;;3.00;;
7316;SDS011;3699;51.462;6.696;2024-03-02T01:47:31;15.17;;;3.47;;
7316;SDS011;3699;51.462;6.696;2024-03-02T01:49:58;5.13;;;3.07;;
7316;SDS011;3699;51.462;6.696;2024-03-02T01:52:26;5.57;;;2.70;;
7316;SDS011;3699;51.462;6.696;2024-03-02T01:54:54;3.30;;;2.57;;
7316;SDS011;3699;51.462;6.696;2024-03-02T01:57:21;6.10;;;3.20;;
7316;SDS011;3699;51.462;6.696;2024-03-02T01:59:49;6.57;;;4.23;;
7316;SDS011;3699;51.462;6.696;2024-03-02T02:02:16;14.67;;;8.00;;
7316;SDS011;3699;51.462;6.696;2024-03-02T02:04:43;17.43;;;10.03;;
7316;SDS011;3699;51.462;6.696;2024-03-02T02:07:10;19.10;;;12.87;;
7316;SDS011;3699;51.462;6.696;2024-03-02T02:09:39;17.87;;;12.03;;
7316;SDS011;3699;51.462;6.696;2024-03-02T02:12:06;19.60;;;11.17;;
7316;SDS011;3699;51.462;6.696;2024-03-02T02:14:33;17.10;;;10.17;;
7316;SDS011;3699;51.462;6.696;2024-03-02T02:17:01;12.27;;;7.33;;
7316;SDS011;3699;51.462;6.696;2024-03-02T02:19:27;10.07;;;6.00;;
7316;SDS011;3699;51.462;6.696;2024-03-02T02:21:56;8.23;;;4.67;;
7316;SDS011;3699;51.462;6.696;2024-03-02T02:24:22;5.20;;;3.27;;
7316;SDS011;3699;51.462;6.696;2024-03-02T02:26:49;4.77;;;3.00;;
7316;SDS011;3699;51.462;6.696;2024-03-02T02:29:16;6.33;;;3.50;;
7316;SDS011;3699;51.462;6.696;2024-03-02T02:31:42;4.43;;;2.93;;
7316;SDS011;3699;51.462;6.696;2024-03-02T02:34:09;4.30;;;2.50;;
7316;SDS011;3699;51.462;6.696;2024-03-02T02:36:36;4.60;;;2.50;;
7316;SDS011;3699;51.462;6.696;2024-03-02T02:39:06;3.63;;;2.90;;
7316;SDS011;3699;51.462;6.696;2024-03-02T02:41:35;2.63;;;2.40;;
7316;SDS011;3699;51.462;6.696;2024-03-02T02:44:02;3.80;;;2.73;;
7316;SDS011;3699;51.462;6.696;2024-03-02T02:46:29;4.43;;;2.80;;
7316;SDS011;3699;51.462;6.696;2024-03-02T02:48:56;3.90;;;2.50;;
7316;SDS011;3699;51.462;6.696;2024-03-02T02:51:22;3.63;;;2.63;;
7316;SDS011;3699;51.462;6.696;2024-03-02T02:53:50;3.37;;;2.70;;
7316;SDS011;3699;51.462;6.696;2024-03-02T02:56:18;5.13;;;3.07;;
7316;SDS011;3699;51.462;6.696;2024-03-02T02:58:45;4.90;;;2.90;;
7316;SDS011;3699;51.462;6.696;2024-03-02T03:01:11;4.93;;;3.10;;
7316;SDS011;3699;51.462;6.696;2024-03-02T03:03:38;6.57;;;3.30;;
7316;SDS011;3699;51.462;6.696;2024-03-02T03:06:05;10.70;;;4.00;;
7316;SDS011;3699;51.462;6.696;2024-03-02T03:08:32;6.90;;;2.77;;
7316;SDS011;3699;51.462;6.696;2024-03-02T03:10:59;6.87;;;3.53;;
7316;SDS011;3699;51.462;6.696;2024-03-02T03:13:27;3.23;;;2.23;;
7316;SDS011;3699;51.462;6.696;2024-03-02T03:15:53;3.37;;;2.47;;
7316;SDS011;3699;51.462;6.696;2024-03-02T03:18:20;2.30;;;2.10;;
7316;SDS011;3699;51.462;6.696;2024-03-02T03:20:47;2.40;;;2.20;;
7316;SDS011;3699;51.462;6.696;2024-03-02T03:23:13;3.40;;;2.20;;
7316;SDS011;3699;51.462;6.696;2024-03-02T03:25:42;2.40;;;2.20;;
7316;SDS011;3699;51.462;6.696;2024-03-02T03:28:08;3.93;;;2.30;;
7316;SDS011;3699;51.462;6.696;2024-03-02T03:30:37;2.40;;;2.17;;
7316;SDS011;3699;51.462;6.696;2024-03-02T03:33:04;3.70;;;2.60;;
7316;SDS011;3699;51.462;6.696;2024-03-02T03:35:32;4.50;;;3.53;;
7316;SDS011;3699;51.462;6.696;2024-03-02T03:37:58;5.73;;;3.40;;
7316;SDS011;3699;51.462;6.696;2024-03-02T03:40:25;4.63;;;3.37;;
7316;SDS011;3699;51.462;6.696;2024-03-02T03:42:52;3.87;;;2.80;;
7316;SDS011;3699;51.462;6.696;2024-03-02T03:45:19;6.40;;;3.47;;
7316;SDS011;3699;51.462;6.696;2024-03-02T03:47:47;6.13;;;2.80;;
7316;SDS011;3699;51.462;6.696;2024-03-02T03:50:14;2.73;;;2.27;;
7316;SDS011;3699;51.462;6.696;2024-03-02T03:52:41;3.27;;;2.30;;
7316;SDS011;3699;51.462;6.696;2024-03-02T03:55:08;5.60;;;3.00;;
7316;SDS011;3699;51.462;6.696;2024-03-02T03:57:35;2.70;;;2.40;;
7316;SDS011;3699;51.462;6.696;2024-03-02T04:00:02;5.00;;;2.73;;
7316;SDS011;3699;51.462;6.696;2024-03-02T04:02:29;2.67;;;2.00;;
7316;SDS011;3699;51.462;6.696;2024-03-02T04:04:57;4.20;;;2.27;;
7316;SDS011;3699;51.462;6.696;2024-03-02T04:07:24;2.20;;;2.00;;
7316;SDS011;3699;51.462;6.696;2024-03-02T04:09:51;2.50;;;2.23;;
7316;SDS011;3699;51.462;6.696;2024-03-02T04:12:17;7.57;;;2.43;;
7316;SDS011;3699;51.462;6.696;2024-03-02T04:14:44;8.47;;;3.00;;
7316;SDS011;3699;51.462;6.696;2024-03-02T04:17:11;2.50;;;2.30;;
7316;SDS011;3699;51.462;6.696;2024-03-02T04:19:38;5.73;;;2.57;;
7316;SDS011;3699;51.462;6.696;2024-03-02T04:22:06;4.70;;;2.23;;
7316;SDS011;3699;51.462;6.696;2024-03-02T04:24:33;3.47;;;2.50;;
7316;SDS011;3699;51.462;6.696;2024-03-02T04:26:59;3.63;;;2.20;;
7316;SDS011;3699;51.462;6.696;2024-03-02T04:29:27;2.00;;;1.90;;
7316;SDS011;3699;51.462;6.696;2024-03-02T04:31:54;3.10;;;2.23;;
7316;SDS011;3699;51.462;6.696;2024-03-02T04:34:20;4.20;;;2.17;;
7316;SDS011;3699;51.462;6.696;2024-03-02T04:36:47;3.67;;;2.50;;
7316;SDS011;3699;51.462;6.696;2024-03-02T04:39:16;2.30;;;1.97;;
7316;SDS011;3699;51.462;6.696;2024-03-02T04:41:43;3.60;;;2.20;;
7316;SDS011;3699;51.462;6.696;2024-03-02T04:44:09;6.70;;;2.73;;
7316;SDS011;3699;51.462;6.696;2024-03-02T04:46:36;3.53;;;2.10;;
7316;SDS011;3699;51.462;6.696;2024-03-02T04:49:03;2.27;;;1.90;;
7316;SDS011;3699;51.462;6.696;2024-03-02T04:51:29;4.23;;;2.53;;
7316;SDS011;3699;51.462;6.696;2024-03-02T04:53:56;2.30;;;2.10;;
7316;SDS011;3699;51.462;6.696;2024-03-02T04:56:24;5.67;;;2.10;;
7316;SDS011;3699;51.462;6.696;2024-03-02T04:59:09;2.57;;;2.20;;
7316;SDS011;3699;51.462;6.696;2024-03-02T05:01:36;3.00;;;2.03;;
7316;SDS011;3699;51.462;6.696;2024-03-02T05:04:03;5.37;;;2.73;;
7316;SDS011;3699;51.462;6.696;2024-03-02T05:06:30;3.67;;;2.43;;
7316;SDS011;3699;51.462;6.696;2024-03-02T05:08:56;7.07;;;3.00;;
7316;SDS011;3699;51.462;6.696;2024-03-02T05:11:24;5.97;;;2.77;;
7316;SDS011;3699;51.462;6.696;2024-03-02T05:14:18;7.40;;;2.93;;
7316;SDS011;3699;51.462;6.696;2024-03-02T05:16:44;4.83;;;2.60;;
7316;SDS011;3699;51.462;6.696;2024-03-02T05:19:11;5.00;;;2.93;;
7316;SDS011;3699;51.462;6.696;2024-03-02T05:21:37;3.13;;;2.37;;
7316;SDS011;3699;51.462;6.696;2024-03-02T05:24:04;3.93;;;2.93;;
7316;SDS011;3699;51.462;6.696;2024-03-02T05:26:32;4.63;;;3.10;;
7316;SDS011;3699;51.462;6.696;2024-03-02T05:28:59;4.27;;;3.17;;
7316;SDS011;3699;51.462;6.696;2024-03-02T05:31:26;4.40;;;2.77;;
7316;SDS011;3699;51.462;6.696;2024-03-02T05:33:53;4.53;;;3.00;;
7316;SDS011;3699;51.462;6.696;2024-03-02T05:36:19;7.47;;;3.20;;
7316;SDS011;3699;51.462;6.696;2024-03-02T05:38:46;8.37;;;3.57;;
7316;SDS011;3699;51.462;6.696;2024-03-02T05:41:13;8.33;;;5.13;;
7316;SDS011;3699;51.462;6.696;2024-03-02T05:43:41;9.40;;;6.17;;
7316;SDS011;3699;51.462;6.696;2024-03-02T05:46:08;7.23;;;4.80;;
7316;SDS011;3699;51.462;6.696;2024-03-02T05:48:35;6.43;;;4.33;;
7316;SDS011;3699;51.462;6.696;2024-03-02T05:51:02;6.17;;;3.13;;
7316;SDS011;3699;51.462;6.696;2024-03-02T05:53:29;3.80;;;2.33;;
7316;SDS011;3699;51.462;6.696;2024-03-02T05:55:55;4.13;;;2.50;;
7316;SDS011;3699;51.462;6.696;2024-03-02T05:58:22;3.17;;;2.60;;
7316;SDS011;3699;51.462;6.696;2024-03-02T06:01:03;6.10;;;2.63;;
7316;SDS011;3699;51.462;6.696;2024-03-02T06:03:30;5.60;;;2.53;;
7316;SDS011;3699;51.462;6.696;2024-03-02T06:05:57;4.37;;;3.47;;
7316;SDS011;3699;51.462;6.696;2024-03-02T06:08:24;7.67;;;3.30;;
7316;SDS011;3699;51.462;6.696;2024-03-02T06:10:51;3.90;;;3.10;;
7316;SDS011;3699;51.462;6.696;2024-03-02T06:13:18;4.73;;;2.77;;
7316;SDS011;3699;51.462;6.696;2024-03-02T06:15:45;6.27;;;2.97;;
7316;SDS011;3699;51.462;6.696;2024-03-02T06:18:13;4.63;;;3.40;;
7316;SDS011;3699;51.462;6.696;2024-03-02T06:20:40;5.50;;;3.00;;
7316;SDS011;3699;51.462;6.696;2024-03-02T06:23:06;3.53;;;2.50;;
7316;SDS011;3699;51.462;6.696;2024-03-02T06:25:33;6.57;;;2.83;;
7316;SDS011;3699;51.462;6.696;2024-03-02T06:28:00;3.47;;;2.50;;
7316;SDS011;3699;51.462;6.696;2024-03-02T06:30:26;3.87;;;2.60;;
7316;SDS011;3699;51.462;6.696;2024-03-02T06:32:53;2.80;;;2.40;;
7316;SDS011;3699;51.462;6.696;2024-03-02T06:35:21;2.90;;;2.60;;
7316;SDS011;3699;51.462;6.696;2024-03-02T06:37:48;3.10;;;2.70;;
7316;SDS011;3699;51.462;6.696;2024-03-02T06:40:16;4.97;;;2.77;;
7316;SDS011;3699;51.462;6.696;2024-03-02T06:42:42;3.73;;;2.60;;
7316;SDS011;3699;51.462;6.696;2024-03-02T06:45:09;3.70;;;2.60;;
7316;SDS011;3699;51.462;6.696;2024-03-02T06:47:36;3.10;;;2.70;;
7316;SDS011;3699;51.462;6.696;2024-03-02T06:50:03;4.57;;;2.93;;
7316;SDS011;3699;51.462;6.696;2024-03-02T06:52:33;3.73;;;2.67;;
7316;SDS011;3699;51.462;6.696;2024-03-02T06:55:00;6.53;;;3.10;;
7316;SDS011;3699;51.462;6.696;2024-03-02T06:57:26;7.33;;;2.70;;
7316;SDS011;3699;51.462;6.696;2024-03-02T06:59:53;3.73;;;2.60;;
7316;SDS011;3699;51.462;6.696;2024-03-02T07:02:23;4.00;;;2.50;;
7316;SDS011;3699;51.462;6.696;2024-03-02T07:04:51;4.53;;;2.90;;
7316;SDS011;3699;51.462;6.696;2024-03-02T07:07:18;7.50;;;3.13;;
7316;SDS011;3699;51.462;6.696;2024-03-02T07:09:47;5.87;;;2.93;;
7316;SDS011;3699;51.462;6.696;2024-03-02T07:12:13;4.97;;;2.90;;
7316;SDS011;3699;51.462;6.696;2024-03-02T07:14:40;5.77;;;3.10;;
7316;SDS011;3699;51.462;6.696;2024-03-02T07:17:24;5.40;;;2.67;;
7316;SDS011;3699;51.462;6.696;2024-03-02T07:19:51;4.70;;;2.70;;
7316;SDS011;3699;51.462;6.696;2024-03-02T07:22:18;3.37;;;2.83;;
7316;SDS011;3699;51.462;6.696;2024-03-02T07:24:46;3.73;;;2.53;;
7316;SDS011;3699;51.462;6.696;2024-03-02T07:27:14;5.20;;;2.73;;
7316;SDS011;3699;51.462;6.696;2024-03-02T07:29:41;3.67;;;2.50;;
7316;SDS011;3699;51.462;6.696;2024-03-02T07:32:09;3.90;;;2.90;;
7316;SDS011;3699;51.462;6.696;2024-03-02T07:34:36;4.23;;;2.47;;
7316;SDS011;3699;51.462;6.696;2024-03-02T07:37:03;5.13;;;3.63;;
7316;SDS011;3699;51.462;6.696;2024-03-02T07:39:31;6.57;;;3.40;;
7316;SDS011;3699;51.462;6.696;2024-03-02T07:41:59;5.43;;;2.97;;
7316;SDS011;3699;51.462;6.696;2024-03-02T07:44:26;5.87;;;3.00;;
7316;SDS011;3699;51.462;6.696;2024-03-02T07:46:53;5.37;;;3.43;;
7316;SDS011;3699;51.462;6.696;2024-03-02T07:49:20;5.03;;;3.07;;
7316;SDS011;3699;51.462;6.696;2024-03-02T07:51:47;5.10;;;3.20;;
7316;SDS011;3699;51.462;6.696;2024-03-02T07:54:13;5.40;;;3.07;;
7316;SDS011;3699;51.462;6.696;2024-03-02T07:56:40;4.13;;;3.30;;
7316;SDS011;3699;51.462;6.696;2024-03-02T07:59:08;5.87;;;3.67;;
7316;SDS011;3699;51.462;6.696;2024-03-02T08:01:35;4.63;;;3.23;;
7316;SDS011;3699;51.462;6.696;2024-03-02T08:04:02;10.33;;;3.90;;
7316;SDS011;3699;51.462;6.696;2024-03-02T08:06:29;7.53;;;3.90;;
7316;SDS011;3699;51.462;6.696;2024-03-02T08:08:56;8.33;;;4.43;;
7316;SDS011;3699;51.462;6.696;2024-03-02T08:11:24;5.03;;;3.70;;
7316;SDS011;3699;51.462;6.696;2024-03-02T08:13:52;8.90;;;4.20;;
7316;SDS011;3699;51.462;6.696;2024-03-02T08:16:21;4.93;;;3.47;;
7316;SDS011;3699;51.462;6.696;2024-03-02T08:18:50;6.43;;;3.90;;
7316;SDS011;3699;51.462;6.696;2024-03-02T08:21:17;7.73;;;3.50;;
7316;SDS011;3699;51.462;6.696;2024-03-02T08:23:44;5.90;;;3.63;;
7316;SDS011;3699;51.462;6.696;2024-03-02T08:26:11;6.73;;;3.57;;
7316;SDS011;3699;51.462;6.696;2024-03-02T08:28:38;4.13;;;2.97;;
7316;SDS011;3699;51.462;6.696;2024-03-02T08:31:05;6.27;;;3.17;;
7316;SDS011;3699;51.462;6.696;2024-03-02T08:33:34;6.00;;;3.70;;
7316;SDS011;3699;51.462;6.696;2024-03-02T08:36:01;5.93;;;3.30;;
7316;SDS011;3699;51.462;6.696;2024-03-02T08:38:28;6.53;;;3.20;;
7316;SDS011;3699;51.462;6.696;2024-03-02T08:40:55;4.97;;;3.70;;
7316;SDS011;3699;51.462;6.696;2024-03-02T08:43:22;5.57;;;2.93;;
7316;SDS011;3699;51.462;6.696;2024-03-02T08:45:49;4.13;;;2.97;;
7316;SDS011;3699;51.462;6.696;2024-03-02T08:48:16;4.03;;;2.90;;
7316;SDS011;3699;51.462;6.696;2024-03-02T08:50:44;5.07;;;3.17;;
7316;SDS011;3699;51.462;6.696;2024-03-02T08:53:10;4.57;;;2.97;;
7316;SDS011;3699;51.462;6.696;2024-03-02T08:55:37;5.70;;;3.00;;
7316;SDS011;3699;51.462;6.696;2024-03-02T08:58:04;3.33;;;3.03;;
7316;SDS011;3699;51.462;6.696;2024-03-02T09:00:31;3.87;;;3.00;;
7316;SDS011;3699;51.462;6.696;2024-03-02T09:02:58;2.90;;;2.60;;
7316;SDS011;3699;51.462;6.696;2024-03-02T09:05:25;3.77;;;2.73;;
7316;SDS011;3699;51.462;6.696;2024-03-02T09:07:53;5.67;;;2.60;;
7316;SDS011;3699;51.462;6.696;2024-03-02T09:10:20;3.63;;;2.73;;
7316;SDS011;3699;51.462;6.696;2024-03-02T09:12:47;2.70;;;2.50;;
7316;SDS011;3699;51.462;6.696;2024-03-02T09:15:14;3.77;;;2.53;;
7316;SDS011;3699;51.462;6.696;2024-03-02T09:17:41;4.40;;;2.90;;
7316;SDS011;3699;51.462;6.696;2024-03-02T09:20:08;5.07;;;2.70;;
7316;SDS011;3699;51.462;6.696;2024-03-02T09:22:36;4.97;;;2.50;;
7316;SDS011;3699;51.462;6.696;2024-03-02T09:25:04;5.00;;;2.60;;
7316;SDS011;3699;51.462;6.696;2024-03-02T09:27:35;4.33;;;2.40;;
7316;SDS011;3699;51.462;6.696;2024-03-02T09:30:03;6.47;;;2.40;;
7316;SDS011;3699;51.462;6.696;2024-03-02T09:32:30;2.73;;;2.40;;
7316;SDS011;3699;51.462;6.696;2024-03-02T09:34:57;5.30;;;2.50;;
7316;SDS011;3699;51.462;6.696;2024-03-02T09:37:24;4.87;;;3.00;;
7316;SDS011;3699;51.462;6.696;2024-03-02T09:39:51;5.07;;;3.10;;
7316;SDS011;3699;51.462;6.696;2024-03-02T09:42:20;3.00;;;2.40;;
7316;SDS011;3699;51.462;6.696;2024-03-02T09:44:48;3.97;;;2.10;;
7316;SDS011;3699;51.462;6.696;2024-03-02T09:47:15;4.17;;;2.80;;
7316;SDS011;3699;51.462;6.696;2024-03-02T09:49:41;2.83;;;2.20;;
7316;SDS011;3699;51.462;6.696;2024-03-02T09:52:08;2.97;;;1.60;;
7316;SDS011;3699;51.462;6.696;2024-03-02T09:54:36;2.37;;;1.90;;
7316;SDS011;3699;51.462;6.696;2024-03-02T09:57:04;2.77;;;1.93;;
7316;SDS011;3699;51.462;6.696;2024-03-02T09:59:32;4.17;;;2.50;;
7316;SDS011;3699;51.462;6.696;2024-03-02T10:02:00;3.47;;;1.70;;
7316;SDS011;3699;51.462;6.696;2024-03-02T10:04:28;2.80;;;1.70;;
7316;SDS011;3699;51.462;6.696;2024-03-02T10:07:09;4.07;;;2.03;;
7316;SDS011;3699;51.462;6.696;2024-03-02T10:09:39;4.83;;;1.97;;
7316;SDS011;3699;51.462;6.696;2024-03-02T10:12:07;6.33;;;2.00;;
7316;SDS011;3699;51.462;6.696;2024-03-02T10:14:36;3.17;;;1.83;;
7316;SDS011;3699;51.462;6.696;2024-03-02T10:17:03;2.47;;;1.97;;
7316;SDS011;3699;51.462;6.696;2024-03-02T10:19:32;2.67;;;1.80;;
7316;SDS011;3699;51.462;6.696;2024-03-02T10:22:00;2.00;;;1.60;;
7316;SDS011;3699;51.462;6.696;2024-03-02T10:24:34;2.10;;;1.27;;
7316;SDS011;3699;51.462;6.696;2024-03-02T10:27:06;1.60;;;1.47;;
7316;SDS011;3699;51.462;6.696;2024-03-02T10:29:37;2.77;;;1.60;;
7316;SDS011;3699;51.462;6.696;2024-03-02T10:32:05;2.50;;;1.50;;
7316;SDS011;3699;51.462;6.696;2024-03-02T10:34:35;5.50;;;2.43;;
7316;SDS011;3699;51.462;6.696;2024-03-02T10:37:02;5.60;;;1.50;;
7316;SDS011;3699;51.462;6.696;2024-03-02T10:39:29;3.77;;;1.63;;
7316;SDS011;3699;51.462;6.696;2024-03-02T10:41:57;2.60;;;2.03;;
7316;SDS011;3699;51.462;6.696;2024-03-02T10:44:25;3.90;;;1.83;;
7316;SDS011;3699;51.462;6.696;2024-03-02T10:46:53;5.43;;;2.53;;
7316;SDS011;3699;51.462;6.696;2024-03-02T10:49:22;6.40;;;3.13;;
7316;SDS011;3699;51.462;6.696;2024-03-02T10:51:50;4.33;;;2.00;;
7316;SDS011;3699;51.462;6.696;2024-03-02T10:54:17;3.23;;;1.93;;
7316;SDS011;3699;51.462;6.696;2024-03-02T10:56:50;3.63;;;1.80;;
7316;SDS011;3699;51.462;6.696;2024-03-02T10:59:21;5.90;;;2.33;;
7316;SDS011;3699;51.462;6.696;2024-03-02T11:01:55;3.43;;;2.00;;
7316;SDS011;3699;51.462;6.696;2024-03-02T11:04:24;2.43;;;1.57;;
7316;SDS011;3699;51.462;6.696;2024-03-02T11:06:52;1.90;;;1.70;;
7316;SDS011;3699;51.462;6.696;2024-03-02T11:09:22;3.60;;;1.90;;
7316;SDS011;3699;51.462;6.696;2024-03-02T11:11:54;3.40;;;1.77;;
7316;SDS011;3699;51.462;6.696;2024-03-02T11:14:27;2.90;;;1.60;;
7316;SDS011;3699;51.462;6.696;2024-03-02T11:16:58;3.10;;;1.70;;
7316;SDS011;3699;51.462;6.696;2024-03-02T11:19:26;4.33;;;2.23;;
7316;SDS011;3699;51.462;6.696;2024-03-02T11:21:53;2.93;;;1.97;;
7316;SDS011;3699;51.462;6.696;2024-03-02T11:24:30;5.43;;;1.70;;
7316;SDS011;3699;51.462;6.696;2024-03-02T11:26:58;4.43;;;1.90;;
7316;SDS011;3699;51.462;6.696;2024-03-02T11:32:15;2.83;;;1.67;;
7316;SDS011;3699;51.462;6.696;2024-03-02T11:34:44;5.30;;;2.07;;
7316;SDS011;3699;51.462;6.696;2024-03-02T11:37:12;3.77;;;1.80;;
7316;SDS011;3699;51.462;6.696;2024-03-02T11:39:40;3.10;;;1.50;;
7316;SDS011;3699;51.462;6.696;2024-03-02T11:42:08;3.63;;;1.60;;
7316;SDS011;3699;51.462;6.696;2024-03-02T11:44:35;2.63;;;1.90;;
7316;SDS011;3699;51.462;6.696;2024-03-02T11:47:05;4.10;;;2.27;;
7316;SDS011;3699;51.462;6.696;2024-03-02T11:49:38;3.20;;;2.23;;
7316;SDS011;3699;51.462;6.696;2024-03-02T11:52:06;5.10;;;2.20;;
7316;SDS011;3699;51.462;6.696;2024-03-02T11:54:34;3.37;;;2.20;;
7316;SDS011;3699;51.462;6.696;2024-03-02T11:57:04;3.43;;;2.20;;
7316;SDS011;3699;51.462;6.696;2024-03-02T11:59:31;2.57;;;2.07;;
7316;SDS011;3699;51.462;6.696;2024-03-02T12:01:58;3.97;;;2.33;;
7316;SDS011;3699;51.462;6.696;2024-03-02T12:04:25;2.37;;;1.77;;
7316;SDS011;3699;51.462;6.696;2024-03-02T12:06:56;2.20;;;1.80;;
7316;SDS011;3699;51.462;6.696;2024-03-02T12:09:25;2.80;;;1.70;;
7316;SDS011;3699;51.462;6.696;2024-03-02T12:12:02;4.13;;;2.43;;
7316;SDS011;3699;51.462;6.696;2024-03-02T12:14:30;4.03;;;2.30;;
7316;SDS011;3699;51.462;6.696;2024-03-02T12:16:57;4.27;;;2.07;;
7316;SDS011;3699;51.462;6.696;2024-03-02T12:19:24;3.00;;;2.17;;
7316;SDS011;3699;51.462;6.696;2024-03-02T12:21:51;2.53;;;2.00;;
7316;SDS011;3699;51.462;6.696;2024-03-02T12:24:19;3.27;;;2.13;;
7316;SDS011;3699;51.462;6.696;2024-03-02T12:26:47;4.20;;;2.20;;
7316;SDS011;3699;51.462;6.696;2024-03-02T12:29:15;3.07;;;2.53;;
7316;SDS011;3699;51.462;6.696;2024-03-02T12:31:42;3.17;;;2.30;;
7316;SDS011;3699;51.462;6.696;2024-03-02T12:34:10;3.97;;;1.90;;
7316;SDS011;3699;51.462;6.696;2024-03-02T12:36:39;4.10;;;2.30;;
7316;SDS011;3699;51.462;6.696;2024-03-02T12:39:06;5.77;;;2.73;;
7316;SDS011;3699;51.462;6.696;2024-03-02T12:41:36;2.93;;;2.60;;
7316;SDS011;3699;51.462;6.696;2024-03-02T12:44:03;4.37;;;2.70;;
7316;SDS011;3699;51.462;6.696;2024-03-02T12:46:30;5.60;;;2.60;;
7316;SDS011;3699;51.462;6.696;2024-03-02T12:48:58;4.43;;;2.80;;
7316;SDS011;3699;51.462;6.696;2024-03-02T12:51:26;5.87;;;3.00;;
7316;SDS011;3699;51.462;6.696;2024-03-02T12:53:53;3.60;;;2.20;;
7316;SDS011;3699;51.462;6.696;2024-03-02T12:56:21;3.13;;;2.27;;
7316;SDS011;3699;51.462;6.696;2024-03-02T12:58:52;4.73;;;2.00;;
7316;SDS011;3699;51.462;6.696;2024-03-02T13:01:19;3.33;;;2.10;;
7316;SDS011;3699;51.462;6.696;2024-03-02T13:03:47;3.03;;;1.70;;
7316;SDS011;3699;51.462;6.696;2024-03-02T13:06:14;3.07;;;2.00;;
7316;SDS011;3699;51.462;6.696;2024-03-02T13:08:42;6.33;;;2.60;;
7316;SDS011;3699;51.462;6.696;2024-03-02T13:11:09;4.67;;;2.43;;
7316;SDS011;3699;51.462;6.696;2024-03-02T13:13:36;2.60;;;2.20;;
7316;SDS011;3699;51.462;6.696;2024-03-02T13:16:05;3.03;;;2.10;;
7316;SDS011;3699;51.462;6.696;2024-03-02T13:18:34;4.20;;;2.17;;
7316;SDS011;3699;51.462;6.696;2024-03-02T13:21:01;4.73;;;2.37;;
7316;SDS011;3699;51.462;6.696;2024-03-02T13:23:28;5.27;;;2.00;;
7316;SDS011;3699;51.462;6.696;2024-03-02T13:25:55;6.57;;;2.20;;
7316;SDS011;3699;51.462;6.696;2024-03-02T13:28:23;4.30;;;2.10;;
7316;SDS011;3699;51.462;6.696;2024-03-02T13:30:50;3.17;;;1.77;;
7316;SDS011;3699;51.462;6.696;2024-03-02T13:33:18;5.47;;;2.00;;
7316;SDS011;3699;51.462;6.696;2024-03-02T13:35:47;4.77;;;2.20;;
7316;SDS011;3699;51.462;6.696;2024-03-02T13:38:14;3.97;;;2.47;;
7316;SDS011;3699;51.462;6.696;2024-03-02T13:40:41;7.07;;;2.63;;
7316;SDS011;3699;51.462;6.696;2024-03-02T13:43:08;5.33;;;2.30;;
7316;SDS011;3699;51.462;6.696;2024-03-02T13:45:35;7.50;;;2.97;;
7316;SDS011;3699;51.462;6.696;2024-03-02T13:48:03;3.27;;;2.40;;
7316;SDS011;3699;51.462;6.696;2024-03-02T13:50:31;4.20;;;2.33;;
7316;SDS011;3699;51.462;6.696;2024-03-02T13:52:58;3.77;;;1.60;;
7316;SDS011;3699;51.462;6.696;2024-03-02T13:55:25;1.70;;;1.60;;
7316;SDS011;3699;51.462;6.696;2024-03-02T13:57:52;4.70;;;1.80;;
7316;SDS011;3699;51.462;6.696;2024-03-02T14:00:18;4.77;;;2.00;;
7316;SDS011;3699;51.462;6.696;2024-03-02T14:02:45;5.13;;;2.67;;
7316;SDS011;3699;51.462;6.696;2024-03-02T14:05:14;3.80;;;2.00;;
7316;SDS011;3699;51.462;6.696;2024-03-02T14:07:42;4.63;;;1.93;;
7316;SDS011;3699;51.462;6.696;2024-03-02T14:10:09;2.70;;;1.87;;
7316;SDS011;3699;51.462;6.696;2024-03-02T14:12:36;3.30;;;2.23;;
7316;SDS011;3699;51.462;6.696;2024-03-02T14:15:04;1.90;;;1.70;;
7316;SDS011;3699;51.462;6.696;2024-03-02T14:17:32;3.30;;;1.77;;
7316;SDS011;3699;51.462;6.696;2024-03-02T14:19:58;3.43;;;2.07;;
7316;SDS011;3699;51.462;6.696;2024-03-02T14:22:25;2.43;;;2.00;;
7316;SDS011;3699;51.462;6.696;2024-03-02T14:24:54;2.63;;;1.80;;
7316;SDS011;3699;51.462;6.696;2024-03-02T14:27:20;4.50;;;1.80;;
7316;SDS011;3699;51.462;6.696;2024-03-02T14:29:47;4.23;;;1.70;;
7316;SDS011;3699;51.462;6.696;2024-03-02T14:32:14;3.23;;;2.17;;
7316;SDS011;3699;51.462;6.696;2024-03-02T14:34:41;5.10;;;1.93;;
7316;SDS011;3699;51.462;6.696;2024-03-02T14:37:07;5.27;;;1.60;;
7316;SDS011;3699;51.462;6.696;2024-03-02T14:39:34;2.60;;;1.87;;
7316;SDS011;3699;51.462;6.696;2024-03-02T14:42:03;4.17;;;1.80;;
7316;SDS011;3699;51.462;6.696;2024-03-02T14:44:30;1.67;;;1.50;;
7316;SDS011;3699;51.462;6.696;2024-03-02T14:46:56;1.60;;;1.50;;
7316;SDS011;3699;51.462;6.696;2024-03-02T14:49:23;3.70;;;1.97;;
7316;SDS011;3699;51.462;6.696;2024-03-02T14:51:50;2.30;;;1.70;;
7316;SDS011;3699;51.462;6.696;2024-03-02T14:54:18;2.33;;;1.70;;
7316;SDS011;3699;51.462;6.696;2024-03-02T14:56:44;3.13;;;2.07;;
7316;SDS011;3699;51.462;6.696;2024-03-02T14:59:13;3.90;;;1.70;;
7316;SDS011;3699;51.462;6.696;2024-03-02T15:01:39;1.60;;;1.50;;
7316;SDS011;3699;51.462;6.696;2024-03-02T15:04:06;7.00;;;2.17;;
7316;SDS011;3699;51.462;6.696;2024-03-02T15:06:33;2.17;;;1.73;;
7316;SDS011;3699;51.462;6.696;2024-03-02T15:09:00;1.67;;;1.57;;
7316;SDS011;3699;51.462;6.696;2024-03-02T15:11:27;1.77;;;1.50;;
7316;SDS011;3699;51.462;6.696;2024-03-02T15:13:55;2.13;;;1.67;;
7316;SDS011;3699;51.462;6.696;2024-03-02T15:16:23;3.67;;;1.70;;
7316;SDS011;3699;51.462;6.696;2024-03-02T15:18:51;2.17;;;1.40;;
7316;SDS011;3699;51.462;6.696;2024-03-02T15:21:18;2.50;;;1.70;;